createdAt,value
2024-05-09T00:02:07.960Z,55.95
2024-05-09T00:06:15.300Z,56.28
2024-05-09T00:10:29.097Z,56.82
2024-05-09T00:14:43.132Z,57.02
2024-05-09T00:18:51.025Z,57.49
2024-05-09T00:22:58.774Z,57.26
2024-05-09T00:27:11.273Z,57.85
2024-05-09T00:31:20.355Z,58.17
2024-05-09T00:35:27.785Z,58.79
2024-05-09T00:39:35.126Z,58.97
2024-05-09T00:43:42.245Z,59.24
2024-05-09T00:47:50.091Z,59.80
2024-05-09T00:51:58.851Z,60.00
2024-05-09T00:56:09.339Z,60.27
2024-05-09T01:00:26.517Z,60.46
2024-05-09T01:04:38.769Z,60.64
2024-05-09T01:08:45.964Z,60.80
2024-05-09T01:12:52.948Z,60.76
2024-05-09T01:17:00.133Z,60.97
2024-05-09T01:21:09.680Z,61.30
2024-05-09T01:25:17.075Z,61.43
2024-05-09T01:29:24.536Z,61.90
2024-05-09T01:33:33.742Z,62.22
2024-05-09T01:37:42.108Z,62.41
2024-05-09T01:41:49.406Z,62.79
2024-05-09T01:45:56.710Z,62.92
2024-05-09T01:50:06.656Z,63.27
2024-05-09T01:54:15.906Z,63.49
2024-05-09T01:58:23.987Z,63.80
2024-05-09T02:02:31.741Z,64.08
2024-05-09T02:06:43.618Z,64.14
2024-05-09T02:10:51.647Z,64.34
2024-05-09T02:14:59.404Z,64.38
2024-05-09T02:19:07.219Z,64.79
2024-05-09T02:23:14.648Z,64.99
2024-05-09T02:27:22.384Z,65.39
2024-05-09T02:31:29.697Z,65.65
2024-05-09T02:35:38.221Z,66.27
2024-05-09T02:39:45.422Z,66.48
2024-05-09T02:43:52.047Z,66.77
2024-05-09T02:48:00.208Z,67.06
2024-05-09T02:52:08.880Z,66.82
2024-05-09T02:56:17.229Z,67.02
2024-05-09T03:00:30.123Z,67.07
2024-05-09T03:04:46.459Z,66.92
2024-05-09T03:08:53.866Z,67.05
2024-05-09T03:13:01.213Z,67.22
2024-05-09T03:17:08.793Z,67.64
2024-05-09T03:21:16.343Z,67.69
2024-05-09T03:25:23.392Z,67.93
2024-05-09T03:29:30.515Z,68.01
2024-05-09T03:33:39.868Z,68.09
2024-05-09T03:37:47.063Z,68.21
2024-05-09T03:41:54.466Z,68.52
2024-05-09T03:46:02.005Z,68.32
2024-05-09T03:50:18.183Z,68.75
2024-05-09T03:54:32.816Z,69.10
2024-05-09T03:58:39.868Z,69.13
2024-05-09T04:02:49.238Z,69.54
2024-05-09T04:06:57.163Z,69.47
2024-05-09T04:11:04.149Z,69.54
2024-05-09T04:15:13.613Z,69.25
2024-05-09T04:19:20.923Z,69.13
2024-05-09T04:23:28.343Z,69.28
2024-05-09T04:27:36.080Z,69.17
2024-05-09T04:31:43.674Z,69.20
2024-05-09T04:35:50.920Z,69.30
2024-05-09T04:39:58.629Z,69.13
2024-05-09T04:44:05.596Z,69.07
2024-05-09T04:48:13.168Z,69.49
2024-05-09T04:52:20.909Z,69.26
2024-05-09T04:56:28.156Z,69.22
2024-05-09T05:00:37.592Z,69.05
2024-05-09T05:04:45.839Z,69.00
2024-05-09T05:08:53.493Z,68.91
2024-05-09T05:13:19.866Z,68.76
2024-05-09T05:17:28.140Z,68.53
2024-05-09T05:21:35.136Z,68.63
2024-05-09T05:25:42.493Z,68.49
2024-05-09T05:29:49.823Z,67.81
2024-05-09T05:33:56.943Z,67.53
2024-05-09T05:38:03.992Z,66.05
2024-05-09T05:42:11.831Z,64.55
2024-05-09T05:46:19.399Z,65.02
2024-05-09T05:50:32.843Z,64.51
2024-05-09T05:54:44.072Z,63.30
2024-05-09T05:58:51.788Z,63.32
2024-05-09T06:02:58.690Z,63.42
2024-05-09T06:07:06.351Z,62.12
2024-05-09T06:11:13.620Z,60.37
2024-05-09T06:15:21.402Z,59.82
2024-05-09T06:19:29.768Z,58.99
2024-05-09T06:23:36.957Z,58.06
2024-05-09T06:27:44.904Z,57.49
2024-05-09T06:31:52.273Z,57.24
2024-05-09T06:36:00.380Z,56.70
2024-05-09T06:40:09.943Z,55.61
2024-05-09T06:44:17.601Z,54.95
2024-05-09T06:48:25.197Z,54.31
2024-05-09T06:52:33.091Z,53.82
2024-05-09T06:56:41.751Z,53.76
2024-05-09T07:00:49.110Z,53.65
2024-05-09T07:04:57.683Z,53.50
2024-05-09T07:09:05.433Z,53.16
2024-05-09T07:13:14.166Z,52.19
2024-05-09T07:17:21.904Z,51.90
2024-05-09T07:21:28.918Z,51.61
2024-05-09T07:25:36.083Z,51.18
2024-05-09T07:29:44.020Z,51.21
2024-05-09T07:33:51.409Z,50.48
2024-05-09T07:37:59.767Z,50.09
2024-05-09T07:42:07.311Z,49.67
2024-05-09T07:54:35.994Z,48.83
2024-05-09T07:58:44.021Z,47.93
2024-05-09T08:02:51.168Z,47.55
2024-05-09T08:06:58.654Z,47.53
2024-05-09T08:11:07.217Z,47.02
2024-05-09T08:15:15.017Z,46.62
2024-05-09T08:19:22.861Z,45.78
2024-05-09T08:23:30.051Z,44.99
2024-05-09T08:27:37.215Z,45.33
2024-05-09T08:31:44.875Z,44.76
2024-05-09T08:35:51.680Z,44.38
2024-05-09T08:40:00.610Z,44.29
2024-05-09T08:44:08.029Z,44.30
2024-05-09T08:48:16.482Z,43.75
2024-05-09T08:52:24.200Z,43.33
2024-05-09T08:56:35.319Z,42.98
2024-05-09T09:00:44.394Z,43.44
2024-05-09T09:04:58.119Z,42.89
2024-05-09T09:09:07.142Z,42.23
2024-05-09T09:13:15.020Z,42.73
2024-05-09T09:17:22.669Z,42.57
2024-05-09T09:21:30.389Z,41.89
2024-05-09T09:25:40.309Z,41.47
2024-05-09T09:29:47.090Z,41.42
2024-05-09T09:33:54.505Z,41.18
2024-05-09T09:38:04.708Z,41.47
2024-05-09T09:42:13.481Z,41.80
2024-05-09T09:46:22.929Z,41.43
2024-05-09T09:50:34.459Z,41.41
2024-05-09T09:54:43.265Z,40.85
2024-05-09T09:58:51.222Z,40.96
2024-05-09T10:02:58.364Z,40.27
2024-05-09T10:07:09.580Z,39.72
2024-05-09T10:11:22.029Z,39.42
2024-05-09T10:15:29.904Z,39.38
2024-05-09T10:19:37.165Z,38.43
2024-05-09T10:23:57.168Z,38.69
2024-05-09T10:28:05.129Z,39.42
2024-05-09T10:32:13.088Z,39.79
2024-05-09T10:36:25.090Z,39.21
2024-05-09T10:40:33.020Z,40.18
2024-05-09T10:44:43.853Z,39.41
2024-05-09T10:48:52.278Z,38.86
2024-05-09T10:52:59.707Z,38.33
2024-05-09T10:57:07.989Z,38.72
2024-05-09T11:01:15.458Z,37.73
2024-05-09T11:05:23.917Z,36.63
2024-05-09T11:09:33.095Z,37.15
2024-05-09T11:13:41.316Z,36.63
2024-05-09T11:17:48.813Z,36.08
2024-05-09T11:21:57.112Z,35.51
2024-05-09T11:26:04.559Z,35.28
2024-05-09T11:30:29.525Z,35.64
2024-05-09T11:34:41.756Z,35.26
2024-05-09T11:38:49.207Z,35.62
2024-05-09T11:42:56.648Z,34.83
2024-05-09T11:47:04.264Z,35.02
2024-05-09T11:51:11.470Z,34.96
2024-05-09T11:55:19.114Z,35.99
2024-05-09T11:59:26.288Z,35.80
2024-05-09T12:03:33.952Z,35.97
2024-05-09T12:07:43.377Z,35.85
2024-05-09T12:11:50.154Z,35.30
2024-05-09T12:15:57.179Z,34.66
2024-05-09T12:20:07.075Z,34.15
2024-05-09T12:24:18.454Z,34.33
2024-05-09T12:28:26.680Z,35.43
2024-05-09T12:32:33.787Z,35.37
2024-05-09T12:36:40.906Z,34.99
2024-05-09T12:40:48.880Z,34.76
2024-05-09T12:44:56.235Z,34.95
2024-05-09T12:49:04.231Z,35.07
2024-05-09T12:53:12.437Z,34.61
2024-05-09T12:57:21.619Z,35.67
2024-05-09T13:01:28.720Z,35.66
2024-05-09T13:05:36.696Z,35.42
2024-05-09T13:09:43.835Z,35.63
2024-05-09T13:13:50.931Z,36.29
2024-05-09T13:18:01.928Z,36.61
2024-05-09T13:22:10.826Z,36.30
2024-05-09T13:26:17.837Z,35.70
2024-05-09T13:30:34.371Z,35.33
2024-05-09T13:34:49.841Z,34.82
2024-05-09T13:38:57.655Z,34.39
2024-05-09T13:43:05.110Z,34.89
2024-05-09T13:47:14.792Z,35.28
2024-05-09T13:51:22.050Z,36.09
2024-05-09T13:55:29.353Z,36.09
2024-05-09T13:59:36.424Z,35.78
2024-05-09T14:03:43.564Z,35.43
2024-05-09T14:07:51.664Z,35.90
2024-05-09T14:11:59.250Z,34.89
2024-05-09T14:16:06.973Z,34.63
2024-05-09T14:20:22.921Z,34.98
2024-05-09T14:24:36.116Z,34.71
2024-05-09T14:28:43.638Z,34.14
2024-05-09T14:32:51.044Z,34.48
2024-05-09T14:36:58.886Z,34.65
2024-05-09T14:41:06.143Z,33.64
2024-05-09T14:45:14.037Z,33.81
2024-05-09T14:49:22.974Z,33.88
2024-05-09T14:53:30.052Z,34.26
2024-05-09T14:57:37.909Z,33.03
2024-05-09T15:01:45.371Z,32.82
2024-05-09T15:05:52.568Z,32.73
2024-05-09T15:10:01.170Z,33.10
2024-05-09T15:14:08.552Z,33.17
2024-05-09T15:18:16.140Z,33.55
2024-05-09T15:22:24.456Z,34.05
2024-05-09T15:26:31.535Z,34.28
2024-05-09T15:30:39.623Z,34.22
2024-05-09T15:34:48.309Z,34.04
2024-05-09T15:38:56.301Z,34.10
2024-05-09T15:43:06.516Z,34.47
2024-05-09T15:47:14.247Z,34.36
2024-05-09T15:51:21.193Z,34.06
2024-05-09T15:55:33.309Z,33.86
2024-05-09T15:59:40.532Z,33.96
2024-05-09T16:03:47.933Z,33.83
2024-05-09T16:07:55.681Z,34.30
2024-05-09T16:12:02.856Z,34.67
2024-05-09T16:16:10.968Z,34.52
2024-05-09T16:20:29.388Z,34.52
2024-05-09T16:24:45.166Z,34.63
2024-05-09T16:28:52.119Z,34.84
2024-05-09T16:32:59.195Z,34.89
2024-05-09T16:37:13.435Z,34.66
2024-05-09T16:41:22.083Z,34.99
2024-05-09T16:45:30.290Z,34.98
2024-05-09T16:49:37.304Z,34.99
2024-05-09T16:53:44.680Z,34.82
2024-05-09T16:57:52.855Z,34.47
2024-05-09T17:02:00.092Z,34.87
2024-05-09T17:06:08.668Z,35.28
2024-05-09T17:10:26.154Z,35.34
2024-05-09T17:14:36.657Z,35.42
2024-05-09T17:18:43.931Z,36.14
2024-05-09T17:22:50.537Z,37.15
2024-05-09T17:26:58.047Z,37.74
2024-05-09T17:31:07.328Z,38.25
2024-05-09T17:35:15.201Z,38.71
2024-05-09T17:39:22.509Z,39.21
2024-05-09T17:43:29.817Z,39.45
2024-05-09T17:47:37.944Z,39.97
2024-05-09T17:51:53.946Z,40.36
2024-05-09T17:56:01.519Z,40.33
2024-05-09T18:00:11.882Z,40.82
2024-05-09T18:04:20.378Z,41.52
2024-05-09T18:08:27.360Z,41.59
2024-05-09T18:12:34.496Z,41.84
2024-05-09T18:16:41.481Z,42.83
2024-05-09T18:20:48.799Z,43.47
2024-05-09T18:24:55.836Z,43.83
2024-05-09T18:29:04.166Z,44.51
2024-05-09T18:33:12.405Z,45.52
2024-05-09T18:37:20.081Z,45.60
2024-05-09T18:41:27.170Z,45.98
2024-05-09T18:45:34.034Z,46.21
2024-05-09T18:49:41.490Z,45.95
2024-05-09T18:53:52.405Z,46.44
2024-05-09T18:58:00.929Z,47.42
2024-05-09T19:02:09.652Z,47.49
2024-05-09T19:06:18.405Z,47.82
2024-05-09T19:10:32.265Z,48.03
2024-05-09T19:14:42.086Z,48.28
2024-05-09T19:18:51.087Z,48.29
2024-05-09T19:22:58.423Z,47.85
2024-05-09T19:27:06.172Z,49.19
2024-05-09T19:31:13.481Z,49.83
2024-05-09T19:35:20.127Z,49.65
2024-05-09T19:39:27.345Z,50.04
2024-05-09T19:43:35.980Z,50.30
2024-05-09T19:47:43.709Z,50.30
2024-05-09T19:51:52.124Z,50.70
2024-05-09T19:56:00.939Z,50.78
2024-05-09T20:00:17.840Z,51.19
2024-05-09T20:04:30.320Z,52.03
2024-05-09T20:08:37.784Z,52.82
2024-05-09T20:12:47.336Z,53.25
2024-05-09T20:16:54.862Z,53.61
2024-05-09T20:21:04.345Z,53.96
2024-05-09T20:25:13.400Z,54.03
2024-05-09T20:29:21.113Z,54.29
2024-05-09T20:33:28.993Z,54.04
2024-05-09T20:37:35.829Z,54.43
2024-05-09T20:41:46.328Z,54.60
2024-05-09T20:45:54.095Z,54.86
2024-05-09T20:50:01.775Z,54.67
2024-05-09T20:54:09.598Z,54.55
2024-05-09T20:58:17.173Z,54.53
2024-05-09T21:02:25.296Z,55.33
2024-05-09T21:06:32.840Z,55.86
2024-05-09T21:10:40.576Z,56.26
2024-05-09T21:14:48.216Z,56.30
2024-05-09T21:18:55.596Z,55.81
2024-05-09T21:23:03.277Z,55.90
2024-05-09T21:27:12.785Z,56.37
2024-05-09T21:31:20.087Z,56.90
2024-05-09T21:35:27.906Z,57.29
2024-05-09T21:39:35.442Z,58.29
2024-05-09T21:43:42.127Z,58.58
2024-05-09T21:47:49.420Z,59.12
2024-05-09T21:51:56.912Z,59.33
2024-05-09T21:56:04.490Z,59.21
2024-05-09T22:00:28.167Z,59.25
2024-05-09T22:04:42.991Z,59.53
2024-05-09T22:08:50.513Z,60.05
2024-05-09T22:12:58.412Z,60.05
2024-05-09T22:17:05.821Z,60.43
2024-05-09T22:21:12.734Z,60.07
2024-05-09T22:25:19.937Z,60.47
2024-05-09T22:29:26.926Z,60.36
2024-05-09T22:33:34.344Z,61.44
2024-05-09T22:37:41.898Z,61.52
2024-05-09T22:41:49.181Z,61.57
2024-05-09T22:45:56.221Z,62.23
2024-05-09T22:50:04.430Z,62.32
2024-05-09T22:54:14.853Z,62.60
2024-05-09T22:58:22.106Z,63.24
2024-05-09T23:02:29.975Z,63.20
2024-05-09T23:06:37.334Z,63.49
2024-05-09T23:10:44.820Z,63.50
2024-05-09T23:14:52.012Z,63.69
2024-05-09T23:19:00.884Z,63.60
2024-05-09T23:23:08.845Z,63.68
2024-05-09T23:27:16.598Z,63.91
2024-05-09T23:31:23.261Z,64.42
2024-05-09T23:35:32.642Z,64.74
2024-05-09T23:39:39.972Z,65.03
2024-05-09T23:43:47.101Z,65.48
2024-05-09T23:47:55.716Z,65.79
2024-05-09T23:52:03.088Z,65.89
2024-05-09T23:56:10.964Z,66.17
